createdAt,value
2017-08-21T00:00:49.460Z,3.47
2017-08-21T00:05:31.513Z,4.07
2017-08-21T00:07:44.497Z,3.20
2017-08-21T00:09:55.919Z,3.90
2017-08-21T00:12:08.879Z,3.30
2017-08-21T00:14:15.184Z,3.60
2017-08-21T00:16:20.904Z,3.33
2017-08-21T00:18:28.708Z,3.20
2017-08-21T00:20:36.838Z,4.33
2017-08-21T00:22:57.663Z,4.90
2017-08-21T00:25:11.725Z,6.60
2017-08-21T00:27:28.301Z,3.73
2017-08-21T00:29:36.028Z,3.43
2017-08-21T00:31:43.360Z,5.40
2017-08-21T00:33:51.130Z,3.33
2017-08-21T00:36:03.466Z,3.73
2017-08-21T00:38:09.125Z,3.60
2017-08-21T00:40:18.251Z,3.67
2017-08-21T00:42:24.460Z,3.43
2017-08-21T00:44:33.551Z,4.17
2017-08-21T00:46:40.753Z,4.53
2017-08-21T00:48:47.691Z,3.50
2017-08-21T00:51:05.678Z,4.13
2017-08-21T00:53:13.454Z,3.27
2017-08-21T00:55:19.748Z,4.70
2017-08-21T00:57:27.470Z,3.97
2017-08-21T00:59:34.993Z,7.00
2017-08-21T01:03:54.524Z,4.90
2017-08-21T01:06:03.924Z,3.00
2017-08-21T01:08:14.873Z,6.17
2017-08-21T01:12:41.447Z,2.93
2017-08-21T01:14:51.575Z,3.33
2017-08-21T01:16:58.284Z,3.23
2017-08-21T01:19:11.529Z,5.87
2017-08-21T01:21:18.795Z,4.50
2017-08-21T01:23:28.742Z,3.27
2017-08-21T01:25:36.421Z,3.83
2017-08-21T01:27:47.761Z,2.83
2017-08-21T01:30:12.372Z,3.87
2017-08-21T01:32:36.508Z,3.93
2017-08-21T01:34:42.926Z,3.53
2017-08-21T01:36:48.931Z,2.90
2017-08-21T01:38:56.223Z,5.37
2017-08-21T01:41:07.912Z,3.40
2017-08-21T01:43:17.377Z,4.40
2017-08-21T01:45:25.336Z,3.83
2017-08-21T01:47:32.444Z,3.27
2017-08-21T01:49:39.032Z,3.80
2017-08-21T01:51:49.042Z,3.30
2017-08-21T01:53:58.556Z,3.20
2017-08-21T01:56:07.065Z,6.53
2017-08-21T01:58:16.635Z,3.10
2017-08-21T02:00:22.442Z,3.03
2017-08-21T02:02:29.653Z,4.70
2017-08-21T02:04:36.472Z,3.07
2017-08-21T02:06:42.766Z,3.90
2017-08-21T02:08:58.001Z,4.67
2017-08-21T02:11:10.827Z,2.70
2017-08-21T02:13:18.254Z,3.23
2017-08-21T02:15:25.018Z,3.00
2017-08-21T02:17:31.293Z,3.27
2017-08-21T02:19:45.474Z,3.67
2017-08-21T02:21:56.025Z,3.10
2017-08-21T02:24:06.062Z,5.30
2017-08-21T02:26:12.217Z,4.77
2017-08-21T02:28:18.871Z,3.27
2017-08-21T02:30:27.230Z,3.73
2017-08-21T02:32:33.983Z,2.87
2017-08-21T02:34:42.373Z,4.80
2017-08-21T02:36:57.357Z,3.83
2017-08-21T02:39:31.056Z,4.43
2017-08-21T02:41:36.864Z,4.17
2017-08-21T02:43:43.168Z,3.13
2017-08-21T02:45:51.872Z,2.90
2017-08-21T02:48:01.831Z,3.33
2017-08-21T02:50:11.305Z,3.13
2017-08-21T02:52:17.128Z,4.27
2017-08-21T02:54:25.879Z,7.43
2017-08-21T02:56:32.141Z,3.87
2017-08-21T02:58:39.144Z,3.90
2017-08-21T03:00:45.861Z,5.60
2017-08-21T03:02:54.546Z,4.47
2017-08-21T03:05:07.659Z,3.13
2017-08-21T03:07:14.682Z,3.90
2017-08-21T03:09:20.707Z,9.17
2017-08-21T03:11:27.185Z,4.97
2017-08-21T03:13:34.628Z,4.03
2017-08-21T03:15:41.745Z,5.00
2017-08-21T03:17:49.506Z,4.00
2017-08-21T03:19:58.506Z,3.20
2017-08-21T03:22:09.284Z,3.43
2017-08-21T03:24:16.430Z,8.73
2017-08-21T03:26:22.112Z,3.10
2017-08-21T03:28:27.785Z,5.60
2017-08-21T03:30:33.734Z,3.67
2017-08-21T03:32:40.254Z,4.67
2017-08-21T03:34:49.157Z,3.73
2017-08-21T03:36:56.717Z,7.67
2017-08-21T03:39:06.637Z,5.80
2017-08-21T03:41:12.543Z,4.53
2017-08-21T03:43:18.574Z,8.77
2017-08-21T03:45:24.437Z,7.20
2017-08-21T03:47:32.197Z,5.80
2017-08-21T03:49:38.196Z,5.20
2017-08-21T03:51:48.469Z,7.20
2017-08-21T03:54:03.170Z,5.67
2017-08-21T03:56:11.410Z,9.90
2017-08-21T03:58:26.404Z,8.70
2017-08-21T04:00:33.535Z,5.50
2017-08-21T04:02:39.970Z,6.67
2017-08-21T04:04:50.037Z,5.40
2017-08-21T04:06:56.402Z,6.93
2017-08-21T04:09:06.705Z,5.57
2017-08-21T04:11:12.080Z,5.43
2017-08-21T04:13:17.881Z,6.30
2017-08-21T04:15:23.654Z,5.47
2017-08-21T04:17:31.001Z,7.77
2017-08-21T04:19:36.593Z,5.50
2017-08-21T04:21:45.731Z,6.77
2017-08-21T04:23:54.224Z,5.70
2017-08-21T04:26:05.052Z,6.20
2017-08-21T04:28:16.499Z,10.70
2017-08-21T04:30:22.311Z,6.93
2017-08-21T04:32:33.757Z,10.03
2017-08-21T04:34:40.813Z,8.60
2017-08-21T04:36:49.680Z,6.83
2017-08-21T04:38:57.092Z,11.77
2017-08-21T04:41:10.553Z,38.03
2017-08-21T04:43:16.178Z,25.10
2017-08-21T04:45:21.651Z,62.30
2017-08-21T04:47:32.597Z,35.97
2017-08-21T04:51:53.434Z,61.37
2017-08-21T04:54:02.281Z,27.07
2017-08-21T04:56:08.771Z,20.23
2017-08-21T04:58:17.796Z,32.23
2017-08-21T05:00:26.525Z,13.77
2017-08-21T05:02:37.060Z,32.63
2017-08-21T05:04:45.290Z,31.90
2017-08-21T05:06:54.428Z,18.73
2017-08-21T05:09:03.580Z,16.87
2017-08-21T05:11:09.262Z,17.23
2017-08-21T05:13:18.366Z,27.73
2017-08-21T05:15:24.817Z,16.73
2017-08-21T05:17:33.751Z,31.07
2017-08-21T05:23:04.524Z,15.17
2017-08-21T05:25:10.507Z,15.27
2017-08-21T05:29:43.586Z,9.83
2017-08-21T05:31:51.810Z,7.00
2017-08-21T05:34:04.405Z,9.80
2017-08-21T05:36:11.056Z,12.63
2017-08-21T05:38:17.703Z,9.67
2017-08-21T05:40:26.154Z,25.37
2017-08-21T05:42:36.158Z,36.87
2017-08-21T05:44:46.669Z,59.73
2017-08-21T05:46:54.112Z,21.27
2017-08-21T05:49:07.725Z,12.80
2017-08-21T05:51:15.633Z,5.00
2017-08-21T05:53:21.227Z,13.83
2017-08-21T05:55:28.236Z,6.20
2017-08-21T05:57:36.409Z,7.23
2017-08-21T05:59:42.609Z,7.13
2017-08-21T06:01:51.986Z,11.30
2017-08-21T06:04:06.252Z,5.23
2017-08-21T06:06:14.236Z,9.63
2017-08-21T06:08:21.403Z,8.40
2017-08-21T06:10:27.411Z,8.07
2017-08-21T06:12:35.010Z,6.10
2017-08-21T06:16:57.517Z,4.73
2017-08-21T06:19:07.628Z,5.77
2017-08-21T06:21:15.418Z,4.40
2017-08-21T06:23:23.202Z,5.10
2017-08-21T06:25:33.249Z,9.80
2017-08-21T06:27:54.874Z,5.13
2017-08-21T06:30:09.825Z,5.03
2017-08-21T06:32:18.565Z,5.70
2017-08-21T06:34:27.495Z,7.33
2017-08-21T06:37:09.238Z,3.50
2017-08-21T06:39:15.495Z,5.17
2017-08-21T06:41:21.938Z,6.30
2017-08-21T06:43:31.541Z,8.63
2017-08-21T06:45:38.348Z,7.97
2017-08-21T06:47:48.401Z,10.43
2017-08-21T06:49:55.284Z,4.50
2017-08-21T06:52:08.379Z,5.33
2017-08-21T06:54:14.277Z,9.13
2017-08-21T06:56:21.440Z,4.33
2017-08-21T06:58:29.336Z,4.17
2017-08-21T07:00:36.684Z,4.13
2017-08-21T07:02:43.448Z,6.43
2017-08-21T07:04:49.469Z,10.00
2017-08-21T07:06:58.914Z,13.63
2017-08-21T07:09:12.026Z,9.70
2017-08-21T07:11:22.585Z,5.33
2017-08-21T07:13:30.123Z,6.00
2017-08-21T07:15:39.397Z,8.73
2017-08-21T07:17:50.262Z,5.27
2017-08-21T07:20:02.920Z,5.30
2017-08-21T07:22:10.609Z,4.57
2017-08-21T07:24:21.270Z,5.20
2017-08-21T07:26:31.143Z,7.30
2017-08-21T07:28:38.447Z,4.43
2017-08-21T07:30:48.207Z,12.07
2017-08-21T07:32:56.990Z,3.60
2017-08-21T07:35:07.162Z,5.93
2017-08-21T07:37:15.178Z,10.77
2017-08-21T07:39:22.700Z,5.77
2017-08-21T07:41:31.853Z,3.03
2017-08-21T07:43:39.340Z,7.03
2017-08-21T07:45:51.368Z,7.70
2017-08-21T07:50:11.614Z,6.23
2017-08-21T07:52:17.914Z,3.33
2017-08-21T07:54:24.381Z,2.73
2017-08-21T07:56:31.414Z,5.57
2017-08-21T07:58:37.741Z,3.43
2017-08-21T08:00:45.880Z,3.33
2017-08-21T08:02:53.416Z,2.43
2017-08-21T08:05:06.413Z,2.90
2017-08-21T08:07:14.275Z,11.27
2017-08-21T08:09:21.828Z,5.10
2017-08-21T08:11:30.063Z,2.87
2017-08-21T08:13:37.808Z,3.10
2017-08-21T08:15:44.816Z,2.23
2017-08-21T08:17:53.814Z,2.63
2017-08-21T08:20:03.309Z,6.77
2017-08-21T08:22:09.319Z,7.80
2017-08-21T08:24:15.820Z,3.53
2017-08-21T08:26:24.113Z,5.47
2017-08-21T08:28:35.579Z,3.60
2017-08-21T08:30:41.723Z,1.90
2017-08-21T08:32:57.850Z,3.40
2017-08-21T08:37:31.979Z,4.40
2017-08-21T08:39:41.302Z,2.90
2017-08-21T08:41:49.936Z,2.80
2017-08-21T08:44:27.068Z,2.50
2017-08-21T08:46:37.181Z,2.10
2017-08-21T08:48:45.894Z,2.33
2017-08-21T08:51:20.294Z,2.20
2017-08-21T08:53:46.326Z,2.53
2017-08-21T08:56:00.090Z,4.83
2017-08-21T08:58:14.017Z,3.00
2017-08-21T09:00:20.391Z,1.97
2017-08-21T09:02:27.137Z,2.50
2017-08-21T09:04:32.881Z,5.03
2017-08-21T09:06:39.012Z,2.13
2017-08-21T09:08:44.908Z,2.27
2017-08-21T09:13:06.981Z,5.37
2017-08-21T09:15:17.715Z,6.20
2017-08-21T09:17:24.970Z,2.80
2017-08-21T09:19:31.394Z,3.30
2017-08-21T09:21:37.307Z,3.90
2017-08-21T09:23:43.959Z,3.00
2017-08-21T09:25:51.245Z,11.10
2017-08-21T09:27:58.868Z,6.00
2017-08-21T09:30:08.283Z,3.83
2017-08-21T09:32:14.022Z,2.83
2017-08-21T09:34:20.275Z,4.63
2017-08-21T09:36:26.361Z,6.57
2017-08-21T09:38:32.262Z,3.90
2017-08-21T09:40:38.340Z,4.03
2017-08-21T09:42:46.180Z,2.73
2017-08-21T09:44:51.796Z,2.87
2017-08-21T09:46:58.072Z,2.70
2017-08-21T09:49:06.716Z,4.97
2017-08-21T09:51:12.786Z,3.30
2017-08-21T09:53:18.562Z,2.17
2017-08-21T09:55:24.335Z,3.53
2017-08-21T09:57:30.404Z,3.43
2017-08-21T09:59:36.543Z,2.10
2017-08-21T10:01:42.600Z,2.13
2017-08-21T10:03:51.919Z,2.80
2017-08-21T10:05:59.103Z,2.13
2017-08-21T10:08:08.380Z,2.50
2017-08-21T10:10:14.424Z,1.80
2017-08-21T10:12:20.869Z,7.33
2017-08-21T10:14:27.351Z,3.80
2017-08-21T10:16:33.023Z,2.43
2017-08-21T10:18:38.667Z,2.70
2017-08-21T10:20:45.244Z,1.70
2017-08-21T10:22:52.464Z,2.30
2017-08-21T10:25:02.286Z,2.23
2017-08-21T10:27:09.775Z,4.20
2017-08-21T10:29:15.466Z,4.40
2017-08-21T10:31:21.684Z,2.83
2017-08-21T10:33:27.968Z,3.30
2017-08-21T10:35:33.808Z,2.07
2017-08-21T10:37:39.532Z,3.03
2017-08-21T10:39:48.815Z,5.17
2017-08-21T10:41:56.856Z,5.47
2017-08-21T10:44:06.449Z,1.90
2017-08-21T10:46:12.959Z,6.03
2017-08-21T10:48:19.009Z,5.77
2017-08-21T10:50:24.862Z,2.33
2017-08-21T10:52:31.721Z,2.03
2017-08-21T10:54:37.436Z,1.50
2017-08-21T10:56:43.115Z,1.93
2017-08-21T10:58:51.879Z,3.23
2017-08-21T11:00:59.363Z,1.53
2017-08-21T11:03:08.549Z,1.80
2017-08-21T11:05:14.262Z,3.40
2017-08-21T11:07:20.337Z,1.93
2017-08-21T11:09:26.148Z,5.93
2017-08-21T11:11:32.708Z,4.10
2017-08-21T11:13:38.387Z,2.97
2017-08-21T11:15:44.911Z,2.90
2017-08-21T11:17:53.051Z,3.33
2017-08-21T11:20:02.390Z,2.80
2017-08-21T11:22:08.614Z,3.83
2017-08-21T11:24:15.141Z,3.90
2017-08-21T11:26:21.049Z,3.93
2017-08-21T11:28:27.143Z,2.93
2017-08-21T11:30:32.777Z,3.27
2017-08-21T11:32:38.845Z,2.10
2017-08-21T11:34:46.764Z,2.50
2017-08-21T11:36:56.004Z,1.90
2017-08-21T11:39:08.843Z,1.50
2017-08-21T11:41:14.651Z,2.07
2017-08-21T11:43:21.175Z,1.73
2017-08-21T11:45:28.717Z,3.67
2017-08-21T11:47:34.523Z,1.30
2017-08-21T11:49:40.697Z,3.00
2017-08-21T11:51:48.093Z,4.00
2017-08-21T11:53:56.363Z,1.80
2017-08-21T11:56:06.037Z,3.93
2017-08-21T11:58:13.071Z,2.70
2017-08-21T12:00:18.965Z,2.40
2017-08-21T12:02:26.518Z,1.83
2017-08-21T12:04:32.604Z,2.40
2017-08-21T12:06:39.227Z,3.27
2017-08-21T12:08:45.434Z,2.03
2017-08-21T12:10:59.154Z,2.80
2017-08-21T12:13:08.575Z,4.73
2017-08-21T12:15:14.789Z,1.93
2017-08-21T12:17:20.326Z,2.00
2017-08-21T12:19:26.202Z,2.60
2017-08-21T12:21:32.637Z,5.93
2017-08-21T12:23:39.308Z,1.33
2017-08-21T12:25:47.733Z,1.77
2017-08-21T12:27:55.525Z,2.07
2017-08-21T12:30:04.750Z,1.33
2017-08-21T12:32:10.607Z,3.63
2017-08-21T12:34:16.757Z,2.27
2017-08-21T12:36:22.656Z,1.93
2017-08-21T12:38:28.869Z,2.23
2017-08-21T12:40:35.241Z,3.20
2017-08-21T12:42:41.058Z,3.60
2017-08-21T12:44:51.986Z,2.60
2017-08-21T12:47:02.265Z,2.97
2017-08-21T12:49:13.585Z,2.03
2017-08-21T12:51:21.008Z,1.97
2017-08-21T12:53:30.120Z,3.07
2017-08-21T12:55:37.014Z,2.70
2017-08-21T12:57:44.800Z,4.17
2017-08-21T12:59:52.611Z,3.83
2017-08-21T13:01:58.553Z,1.63
2017-08-21T13:04:07.978Z,1.90
2017-08-21T13:08:48.892Z,1.97
2017-08-21T13:11:12.052Z,2.83
2017-08-21T13:13:17.751Z,1.23
2017-08-21T13:15:23.495Z,2.27
2017-08-21T13:17:30.182Z,1.90
2017-08-21T13:19:36.596Z,1.93
2017-08-21T13:21:42.967Z,2.67
2017-08-21T13:23:48.722Z,3.43
2017-08-21T13:25:57.934Z,2.37
2017-08-21T13:28:05.870Z,1.40
2017-08-21T13:30:12.397Z,2.70
2017-08-21T13:32:18.144Z,2.87
2017-08-21T13:34:23.940Z,2.43
2017-08-21T13:36:29.633Z,1.53
2017-08-21T13:38:35.394Z,2.43
2017-08-21T13:40:41.726Z,3.00
2017-08-21T13:42:54.127Z,1.80
2017-08-21T13:44:59.860Z,1.60
2017-08-21T13:47:12.249Z,1.93
2017-08-21T13:49:18.780Z,1.60
2017-08-21T13:51:25.464Z,1.40
2017-08-21T13:53:32.017Z,1.23
2017-08-21T13:55:38.399Z,1.30
2017-08-21T13:57:46.691Z,2.37
2017-08-21T13:59:53.877Z,1.67
2017-08-21T14:02:04.449Z,3.70
2017-08-21T14:04:11.407Z,2.70
2017-08-21T14:06:17.662Z,3.43
2017-08-21T14:08:23.838Z,3.50
2017-08-21T14:10:29.577Z,59.70
2017-08-21T14:12:36.480Z,24.30
2017-08-21T14:14:46.916Z,954.33
2017-08-21T14:16:54.779Z,66.90
2017-08-21T14:19:03.428Z,8.83
2017-08-21T14:21:09.226Z,5.10
2017-08-21T14:23:14.971Z,4.63
2017-08-21T14:25:21.757Z,5.17
2017-08-21T14:29:59.525Z,3.60
2017-08-21T14:36:42.317Z,3.97
2017-08-21T14:38:50.006Z,146.33
2017-08-21T14:40:56.879Z,553.93
2017-08-21T14:43:04.459Z,869.00
2017-08-21T14:45:11.146Z,630.43
2017-08-21T14:47:17.167Z,614.80
2017-08-21T14:49:23.042Z,410.13
2017-08-21T14:53:39.677Z,13.40
2017-08-21T14:55:51.343Z,5.93
2017-08-21T14:57:59.504Z,3.77
2017-08-21T15:00:14.409Z,4.30
2017-08-21T15:02:20.275Z,1.70
2017-08-21T15:04:26.865Z,1.97
2017-08-21T15:06:33.395Z,1.77
2017-08-21T15:08:39.488Z,1.90
2017-08-21T15:10:52.740Z,1.80
2017-08-21T15:13:03.881Z,1.27
2017-08-21T15:15:09.956Z,3.10
2017-08-21T15:17:15.763Z,4.67
2017-08-21T15:19:22.774Z,2.00
2017-08-21T15:21:28.522Z,2.43
2017-08-21T15:23:35.043Z,2.43
2017-08-21T15:25:41.695Z,2.00
2017-08-21T15:27:49.364Z,4.27
2017-08-21T15:29:59.560Z,4.07
2017-08-21T15:32:11.915Z,2.87
2017-08-21T15:34:17.873Z,2.10
2017-08-21T15:36:25.869Z,2.30
2017-08-21T15:38:32.243Z,1.70
2017-08-21T15:40:40.474Z,2.60
2017-08-21T15:42:45.909Z,5.13
2017-08-21T15:44:52.556Z,4.57
2017-08-21T15:47:01.886Z,3.00
2017-08-21T15:49:08.633Z,1.67
2017-08-21T15:56:22.836Z,1.63
2017-08-21T15:58:40.664Z,3.60
2017-08-21T16:00:49.234Z,4.83
2017-08-21T16:02:56.358Z,2.50
2017-08-21T16:05:04.622Z,6.50
2017-08-21T16:07:10.676Z,3.00
2017-08-21T16:09:16.516Z,5.63
2017-08-21T16:11:21.958Z,6.00
2017-08-21T16:13:28.969Z,4.20
2017-08-21T16:15:34.905Z,3.50
2017-08-21T16:17:40.713Z,3.27
2017-08-21T16:19:53.836Z,2.27
2017-08-21T16:22:03.793Z,2.00
2017-08-21T16:24:10.055Z,4.47
2017-08-21T16:26:16.200Z,1.80
2017-08-21T16:28:21.503Z,6.30
2017-08-21T16:30:28.344Z,2.37
2017-08-21T16:32:34.621Z,3.30
2017-08-21T16:34:40.768Z,3.97
2017-08-21T16:36:49.146Z,2.60
2017-08-21T16:38:58.056Z,4.30
2017-08-21T16:41:08.152Z,1.83
2017-08-21T16:43:14.679Z,2.00
2017-08-21T16:45:20.786Z,1.53
2017-08-21T16:47:26.560Z,4.70
2017-08-21T16:49:34.058Z,3.40
2017-08-21T16:51:40.863Z,2.10
2017-08-21T16:53:50.862Z,1.97
2017-08-21T16:56:07.087Z,5.60
2017-08-21T16:58:13.404Z,5.87
2017-08-21T17:00:19.947Z,2.50
2017-08-21T17:02:26.200Z,7.57
2017-08-21T17:04:34.301Z,4.23
2017-08-21T17:06:40.674Z,3.60
2017-08-21T17:08:55.825Z,5.70
2017-08-21T17:11:04.637Z,2.70
2017-08-21T17:13:10.661Z,2.80
2017-08-21T17:15:18.867Z,5.90
2017-08-21T17:17:25.392Z,5.43
2017-08-21T17:19:32.131Z,3.40
2017-08-21T17:21:39.119Z,3.23
2017-08-21T17:23:48.386Z,2.27
2017-08-21T17:25:57.295Z,3.57
2017-08-21T17:28:12.744Z,3.47
2017-08-21T17:30:22.128Z,2.53
2017-08-21T17:33:06.095Z,3.63
2017-08-21T17:35:14.526Z,6.10
2017-08-21T17:37:21.114Z,3.90
2017-08-21T17:39:29.569Z,4.43
2017-08-21T17:41:38.520Z,5.07
2017-08-21T17:43:46.744Z,3.50
2017-08-21T17:45:55.652Z,3.47
2017-08-21T17:48:06.928Z,5.00
2017-08-21T17:50:17.191Z,2.90
2017-08-21T17:52:23.485Z,7.00
2017-08-21T17:54:29.466Z,2.70
2017-08-21T17:56:40.240Z,5.57
2017-08-21T17:58:48.805Z,3.77
2017-08-21T18:00:58.686Z,3.27
2017-08-21T18:03:06.831Z,5.00
2017-08-21T18:05:14.365Z,8.60
2017-08-21T18:07:20.139Z,3.63
2017-08-21T18:09:27.062Z,3.10
2017-08-21T18:11:34.768Z,3.20
2017-08-21T18:13:40.954Z,4.53
2017-08-21T18:15:47.940Z,3.30
2017-08-21T18:17:53.660Z,4.73
2017-08-21T18:20:01.986Z,3.10
2017-08-21T18:22:09.892Z,3.87
2017-08-21T18:24:16.993Z,3.30
2017-08-21T18:26:22.877Z,3.70
2017-08-21T18:28:28.501Z,4.90
2017-08-21T18:30:34.072Z,3.70
2017-08-21T18:32:39.969Z,3.50
2017-08-21T18:34:50.429Z,6.23
2017-08-21T18:37:00.793Z,4.83
2017-08-21T18:39:07.556Z,6.73
2017-08-21T18:41:14.023Z,4.37
2017-08-21T18:43:19.660Z,6.93
2017-08-21T18:45:25.850Z,4.13
2017-08-21T18:47:31.778Z,6.63
2017-08-21T18:49:37.536Z,3.43
2017-08-21T18:51:44.656Z,6.90
2017-08-21T18:53:53.113Z,3.77
2017-08-21T18:56:04.672Z,4.50
2017-08-21T18:58:11.636Z,3.10
2017-08-21T19:00:18.926Z,3.40
2017-08-21T19:02:24.754Z,4.60
2017-08-21T19:04:32.246Z,3.97
2017-08-21T19:06:38.513Z,3.83
2017-08-21T19:08:44.992Z,3.67
2017-08-21T19:10:50.583Z,3.40
2017-08-21T19:12:56.691Z,5.10
2017-08-21T19:15:10.141Z,5.13
2017-08-21T19:17:16.293Z,4.13
2017-08-21T19:19:22.110Z,10.60
2017-08-21T19:21:27.893Z,8.13
2017-08-21T19:23:33.894Z,15.27
2017-08-21T19:25:40.499Z,8.10
2017-08-21T19:27:54.369Z,6.90
2017-08-21T19:30:16.448Z,5.10
2017-08-21T19:32:25.172Z,4.57
2017-08-21T19:34:37.262Z,6.57
2017-08-21T19:36:42.807Z,4.97
2017-08-21T19:38:49.805Z,4.40
2017-08-21T19:40:55.421Z,4.87
2017-08-21T19:43:07.062Z,8.10
2017-08-21T19:45:13.182Z,5.43
2017-08-21T19:47:19.143Z,8.10
2017-08-21T19:49:24.737Z,5.53
2017-08-21T19:51:31.642Z,5.10
2017-08-21T19:59:13.921Z,4.30
2017-08-21T20:03:32.144Z,4.67
2017-08-21T20:05:37.906Z,6.20
2017-08-21T20:07:45.209Z,3.97
2017-08-21T20:10:00.859Z,5.00
2017-08-21T20:12:06.636Z,9.60
2017-08-21T20:14:13.545Z,5.77
2017-08-21T20:16:20.005Z,4.70
2017-08-21T20:18:26.328Z,7.10
2017-08-21T20:20:33.696Z,4.30
2017-08-21T20:22:39.929Z,4.70
2017-08-21T20:24:47.662Z,5.23
2017-08-21T20:26:56.558Z,5.03
2017-08-21T20:29:05.308Z,4.80
2017-08-21T20:31:10.981Z,4.50
2017-08-21T20:33:16.672Z,4.97
2017-08-21T20:35:22.726Z,4.77
2017-08-21T20:37:29.141Z,5.37
2017-08-21T20:39:35.093Z,4.40
2017-08-21T20:41:41.178Z,6.97
2017-08-21T20:43:49.512Z,4.97
2017-08-21T20:45:56.008Z,5.60
2017-08-21T20:48:04.891Z,5.33
2017-08-21T20:50:11.121Z,5.33
2017-08-21T20:52:17.067Z,8.20
2017-08-21T20:54:22.814Z,6.67
2017-08-21T20:56:30.847Z,6.87
2017-08-21T20:58:36.826Z,5.87
2017-08-21T21:00:44.031Z,4.87
2017-08-21T21:02:51.030Z,12.77
2017-08-21T21:04:58.618Z,172.17
2017-08-21T21:07:07.846Z,368.53
2017-08-21T21:09:14.928Z,29.93
2017-08-21T21:11:20.679Z,60.83
2017-08-21T21:13:28.010Z,19.93
2017-08-21T21:15:34.103Z,10.33
2017-08-21T21:17:39.872Z,6.50
2017-08-21T21:19:49.137Z,9.80
2017-08-21T21:21:56.941Z,9.00
2017-08-21T21:24:05.718Z,6.67
2017-08-21T21:26:11.852Z,8.97
2017-08-21T21:28:17.708Z,6.03
2017-08-21T21:30:23.364Z,8.30
2017-08-21T21:32:29.794Z,9.10
2017-08-21T21:34:35.887Z,6.60
2017-08-21T21:37:49.530Z,5.13
2017-08-21T21:42:08.947Z,5.50
2017-08-21T21:44:14.548Z,7.93
2017-08-21T21:46:20.262Z,4.70
2017-08-21T21:48:25.962Z,4.23
2017-08-21T21:50:32.452Z,4.60
2017-08-21T21:52:38.403Z,5.40
2017-08-21T21:54:43.943Z,6.37
2017-08-21T21:56:51.697Z,4.43
2017-08-21T21:58:57.695Z,4.93
2017-08-21T22:01:06.388Z,7.23
2017-08-21T22:03:12.441Z,9.70
2017-08-21T22:05:20.550Z,6.23
2017-08-21T22:07:28.390Z,7.40
2017-08-21T22:09:38.070Z,7.70
2017-08-21T22:11:46.346Z,6.77
2017-08-21T22:13:53.525Z,5.60
2017-08-21T22:19:08.212Z,5.40
2017-08-21T22:21:44.490Z,10.07
2017-08-21T22:26:16.085Z,7.30
2017-08-21T22:28:22.737Z,5.97
2017-08-21T22:30:45.396Z,9.17
2017-08-21T22:32:53.335Z,4.37
2017-08-21T22:35:04.620Z,12.80
2017-08-21T22:37:11.011Z,5.83
2017-08-21T22:39:17.283Z,4.03
2017-08-21T22:41:24.455Z,3.90
2017-08-21T22:43:30.095Z,4.60
2017-08-21T22:45:36.028Z,4.73
2017-08-21T22:47:43.647Z,4.27
2017-08-21T22:49:52.029Z,4.03
2017-08-21T22:51:58.245Z,4.30
2017-08-21T22:54:07.075Z,3.63
2017-08-21T22:56:13.245Z,6.93
2017-08-21T22:58:19.286Z,3.80
2017-08-21T23:00:25.837Z,6.97
2017-08-21T23:02:31.447Z,3.80
2017-08-21T23:04:37.225Z,4.60
2017-08-21T23:06:42.834Z,7.73
2017-08-21T23:08:49.026Z,4.03
2017-08-21T23:10:55.321Z,3.80
2017-08-21T23:13:03.729Z,3.60
2017-08-21T23:15:10.032Z,3.50
2017-08-21T23:17:16.057Z,5.23
2017-08-21T23:19:22.091Z,6.30
2017-08-21T23:21:28.435Z,4.20
2017-08-21T23:23:35.497Z,5.03
2017-08-21T23:25:41.857Z,4.87
2017-08-21T23:27:48.816Z,3.23
2017-08-21T23:29:55.521Z,4.00
2017-08-21T23:32:03.277Z,4.03
2017-08-21T23:34:09.021Z,4.10
2017-08-21T23:36:15.214Z,7.63
2017-08-21T23:38:21.008Z,9.33
2017-08-21T23:40:26.930Z,5.30
2017-08-21T23:42:32.379Z,3.70
2017-08-21T23:44:40.555Z,4.37
2017-08-21T23:47:04.347Z,4.30
2017-08-21T23:49:13.800Z,4.73
2017-08-21T23:51:21.249Z,3.70
2017-08-21T23:53:26.780Z,8.73
2017-08-21T23:55:33.354Z,7.73
2017-08-21T23:57:39.487Z,3.73
2017-08-21T23:59:48.986Z,6.67
